createdAt,value
2023-04-24T00:02:45.734Z,10.25
2023-04-24T00:05:47.617Z,10.21
2023-04-24T00:08:50.581Z,10.19
2023-04-24T00:11:51.632Z,10.16
2023-04-24T00:14:45.556Z,10.12
2023-04-24T00:17:32.608Z,10.08
2023-04-24T00:20:32.575Z,10.05
2023-04-24T00:23:32.626Z,10.03
2023-04-24T00:26:32.564Z,9.99
2023-04-24T00:29:32.628Z,9.95
2023-04-24T00:32:33.609Z,9.91
2023-04-24T00:35:34.737Z,9.88
2023-04-24T00:38:27.723Z,9.84
2023-04-24T00:41:27.598Z,9.81
2023-04-24T00:44:27.701Z,9.79
2023-04-24T00:47:28.649Z,9.80
2023-04-24T00:50:28.691Z,9.80
2023-04-24T00:53:28.656Z,9.80
2023-04-24T00:56:28.698Z,9.76
2023-04-24T00:59:29.649Z,9.71
2023-04-24T01:02:29.766Z,9.68
2023-04-24T01:05:29.677Z,9.68
2023-04-24T01:08:22.761Z,9.72
2023-04-24T01:11:23.660Z,9.76
2023-04-24T01:14:23.677Z,9.79
2023-04-24T01:17:23.761Z,9.82
2023-04-24T01:20:23.710Z,9.86
2023-04-24T01:23:23.713Z,9.92
2023-04-24T01:26:23.726Z,9.93
2023-04-24T01:29:23.751Z,9.91
2023-04-24T01:32:23.723Z,9.90
2023-04-24T01:35:23.712Z,9.88
2023-04-24T01:38:23.696Z,9.87
2023-04-24T01:41:23.799Z,9.88
2023-04-24T01:44:23.726Z,9.90
2023-04-24T01:47:23.774Z,9.92
2023-04-24T01:50:23.777Z,9.89
2023-04-24T01:53:23.718Z,9.86
2023-04-24T01:56:23.733Z,9.82
2023-04-24T01:59:26.723Z,9.78
2023-04-24T02:02:27.853Z,9.60
2023-04-24T02:05:27.771Z,9.47
2023-04-24T02:08:29.819Z,9.26
2023-04-24T02:11:29.917Z,8.98
2023-04-24T02:14:29.964Z,8.75
2023-04-24T02:17:29.932Z,8.69
2023-04-24T02:20:30.747Z,8.55
2023-04-24T02:23:31.355Z,8.37
2023-04-24T02:26:31.818Z,8.27
2023-04-24T02:29:31.849Z,8.17
2023-04-24T02:32:31.834Z,8.11
2023-04-24T02:35:31.914Z,8.12
2023-04-24T02:38:31.811Z,8.15
2023-04-24T02:41:38.110Z,8.18
2023-04-24T02:44:37.863Z,8.18
2023-04-24T02:47:37.906Z,8.16
2023-04-24T02:50:37.833Z,8.16
2023-04-24T02:53:37.844Z,8.20
2023-04-24T02:56:37.912Z,8.26
2023-04-24T02:59:37.837Z,8.33
2023-04-24T03:02:38.114Z,8.42
2023-04-24T03:05:37.889Z,8.53
2023-04-24T03:08:37.849Z,8.58
2023-04-24T03:11:37.899Z,8.61
2023-04-24T03:14:37.858Z,8.64
2023-04-24T03:17:38.099Z,8.70
2023-04-24T03:20:37.934Z,8.75
2023-04-24T03:23:38.874Z,8.79
2023-04-24T03:26:38.994Z,8.71
2023-04-24T03:30:01.932Z,8.60
2023-04-24T03:33:14.942Z,8.51
2023-04-24T03:36:21.975Z,8.43
2023-04-24T03:39:21.890Z,8.43
2023-04-24T03:42:24.029Z,8.45
2023-04-24T03:45:23.933Z,8.45
2023-04-24T03:48:23.944Z,8.49
2023-04-24T03:51:23.932Z,8.56
2023-04-24T03:54:29.997Z,8.65
2023-04-24T03:57:22.945Z,8.65
2023-04-24T04:00:34.937Z,8.64
2023-04-24T04:03:57.218Z,8.66
2023-04-24T04:06:56.965Z,8.68
2023-04-24T04:09:57.000Z,8.77
2023-04-24T04:12:57.039Z,8.88
2023-04-24T04:15:57.011Z,8.96
2023-04-24T04:18:56.978Z,9.04
2023-04-24T04:21:59.976Z,9.19
2023-04-24T04:25:10.038Z,9.31
2023-04-24T04:28:10.027Z,9.46
2023-04-24T04:31:09.982Z,9.62
2023-04-24T04:34:10.102Z,9.79
2023-04-24T04:37:10.083Z,9.94
2023-04-24T04:40:34.100Z,10.14
2023-04-24T04:43:42.023Z,10.33
2023-04-24T04:46:44.054Z,10.54
2023-04-24T04:49:50.023Z,10.77
2023-04-24T04:52:51.046Z,11.04
2023-04-24T04:55:55.132Z,11.33
2023-04-24T04:59:02.083Z,11.52
2023-04-24T05:02:03.137Z,11.68
2023-04-24T05:05:03.181Z,11.78
2023-04-24T05:08:04.492Z,11.95
2023-04-24T05:11:06.100Z,12.17
2023-04-24T05:14:06.132Z,12.61
2023-04-24T05:17:07.138Z,13.52
2023-04-24T05:20:07.112Z,14.35
2023-04-24T05:23:07.069Z,15.13
2023-04-24T05:26:08.215Z,15.87
2023-04-24T05:29:08.096Z,16.63
2023-04-24T05:32:09.145Z,17.47
2023-04-24T05:35:09.131Z,18.18
2023-04-24T05:38:09.172Z,18.86
2023-04-24T05:41:09.298Z,19.57
2023-04-24T05:44:09.137Z,20.04
2023-04-24T05:47:09.215Z,20.40
2023-04-24T05:50:09.181Z,20.70
2023-04-24T05:53:09.254Z,20.80
2023-04-24T05:56:09.145Z,21.22
2023-04-24T05:59:09.208Z,21.42
2023-04-24T06:02:09.312Z,21.56
2023-04-24T06:05:09.205Z,21.98
2023-04-24T06:08:09.283Z,22.17
2023-04-24T06:11:04.822Z,21.82
2023-04-24T06:14:05.226Z,21.69
2023-04-24T06:17:05.236Z,21.84
2023-04-24T06:20:07.217Z,22.24
2023-04-24T06:23:07.238Z,22.54
2023-04-24T06:26:08.235Z,22.77
2023-04-24T06:29:08.268Z,22.97
2023-04-24T06:32:08.312Z,23.21
2023-04-24T06:35:08.318Z,23.25
2023-04-24T06:38:09.285Z,23.07
2023-04-24T06:41:10.306Z,22.87
2023-04-24T06:44:10.280Z,22.85
2023-04-24T06:47:10.302Z,23.14
2023-04-24T06:50:10.293Z,23.14
2023-04-24T06:53:10.274Z,23.10
2023-04-24T06:56:10.318Z,23.38
2023-04-24T06:59:10.280Z,23.56
2023-04-24T07:02:10.446Z,23.65
2023-04-24T07:05:03.411Z,23.64
2023-04-24T07:08:05.372Z,23.87
2023-04-24T07:11:05.357Z,24.03
2023-04-24T07:14:05.298Z,24.18
2023-04-24T07:17:05.351Z,24.50
2023-04-24T07:20:05.437Z,24.64
2023-04-24T07:22:58.327Z,24.77
2023-04-24T07:25:38.774Z,24.77
2023-04-24T07:28:26.393Z,24.70
2023-04-24T07:31:05.881Z,25.13
2023-04-24T07:33:52.427Z,25.54
2023-04-24T07:36:52.359Z,25.89
2023-04-24T07:39:53.387Z,26.18
2023-04-24T07:42:55.422Z,26.13
2023-04-24T07:45:48.527Z,25.85
2023-04-24T07:48:48.890Z,25.91
2023-04-24T07:51:51.436Z,26.15
2023-04-24T07:54:52.408Z,26.31
2023-04-24T07:57:53.393Z,26.44
2023-04-24T08:00:53.461Z,26.45
2023-04-24T08:03:54.588Z,26.37
2023-04-24T08:06:54.369Z,26.68
2023-04-24T08:09:54.666Z,26.62
2023-04-24T08:12:54.391Z,26.22
2023-04-24T08:15:54.471Z,25.99
2023-04-24T08:18:54.470Z,25.98
2023-04-24T08:21:55.411Z,25.96
2023-04-24T08:24:55.429Z,25.72
2023-04-24T08:27:55.447Z,25.83
2023-04-24T08:30:55.437Z,25.87
2023-04-24T08:33:55.480Z,25.74
2023-04-24T08:36:55.426Z,26.07
2023-04-24T08:39:55.539Z,26.49
2023-04-24T08:42:58.458Z,26.85
2023-04-24T08:45:58.610Z,27.16
2023-04-24T08:48:58.492Z,27.42
2023-04-24T08:51:51.447Z,27.61
2023-04-24T08:54:38.528Z,27.41
2023-04-24T08:57:38.584Z,26.82
2023-04-24T09:00:38.571Z,26.58
2023-04-24T09:03:39.748Z,26.64
2023-04-24T09:06:39.544Z,26.88
2023-04-24T09:09:39.515Z,26.77
2023-04-24T09:12:39.564Z,26.11
2023-04-24T09:15:40.521Z,25.17
2023-04-24T09:18:42.534Z,24.53
2023-04-24T09:21:45.831Z,24.40
2023-04-24T09:24:45.589Z,24.93
2023-04-24T09:27:45.555Z,25.29
2023-04-24T09:30:47.215Z,25.33
2023-04-24T09:34:12.579Z,24.88
2023-04-24T09:37:12.699Z,24.30
2023-04-24T09:40:24.596Z,23.68
2023-04-24T09:43:24.626Z,23.53
2023-04-24T09:46:24.690Z,24.05
2023-04-24T09:49:27.683Z,24.73
2023-04-24T09:52:28.705Z,24.83
2023-04-24T09:55:29.615Z,24.16
2023-04-24T09:58:22.646Z,23.13
2023-04-24T10:01:09.666Z,22.72
2023-04-24T10:04:09.640Z,22.64
2023-04-24T10:07:10.635Z,22.68
2023-04-24T10:10:11.705Z,22.16
2023-04-24T10:13:12.659Z,21.68
2023-04-24T10:16:12.735Z,21.74
2023-04-24T10:19:12.702Z,22.30
2023-04-24T10:22:12.662Z,23.09
2023-04-24T10:25:12.652Z,23.52
2023-04-24T10:28:12.645Z,23.67
2023-04-24T10:31:12.745Z,24.10
2023-04-24T10:34:12.689Z,24.43
2023-04-24T10:37:12.749Z,24.30
2023-04-24T10:40:12.737Z,24.11
2023-04-24T10:43:16.715Z,23.74
2023-04-24T10:46:18.745Z,23.40
2023-04-24T10:49:18.791Z,23.20
2023-04-24T10:52:18.723Z,23.11
2023-04-24T10:55:18.717Z,22.89
2023-04-24T10:58:19.770Z,22.62
2023-04-24T11:01:19.828Z,22.37
2023-04-24T11:04:19.829Z,22.35
2023-04-24T11:07:19.785Z,22.54
2023-04-24T11:10:19.867Z,23.07
2023-04-24T11:13:19.767Z,23.42
2023-04-24T11:16:31.869Z,23.35
2023-04-24T11:19:32.832Z,22.98
2023-04-24T11:22:32.909Z,22.51
2023-04-24T11:25:32.843Z,22.02
2023-04-24T11:28:34.781Z,21.57
2023-04-24T11:31:49.857Z,21.24
2023-04-24T11:34:49.811Z,20.88
2023-04-24T11:38:08.152Z,20.58
2023-04-24T11:41:11.804Z,20.43
2023-04-24T11:44:11.823Z,20.43
2023-04-24T11:47:11.983Z,20.49
2023-04-24T11:50:12.125Z,20.46
2023-04-24T11:53:04.884Z,20.48
2023-04-24T11:56:05.017Z,20.87
2023-04-24T11:59:06.939Z,21.68
2023-04-24T12:02:09.936Z,22.34
2023-04-24T12:05:03.213Z,22.75
2023-04-24T12:07:48.940Z,22.96
2023-04-24T12:10:34.851Z,23.21
2023-04-24T12:13:17.674Z,23.33
2023-04-24T12:16:03.937Z,23.38
2023-04-24T12:18:54.906Z,23.15
2023-04-24T12:21:48.977Z,22.68
2023-04-24T12:24:48.881Z,22.11
2023-04-24T12:27:48.888Z,21.56
2023-04-24T12:30:51.893Z,21.08
2023-04-24T12:33:53.930Z,20.57
2023-04-24T12:36:54.005Z,19.92
2023-04-24T12:39:53.920Z,19.44
2023-04-24T12:42:58.166Z,19.05
2023-04-24T12:45:57.961Z,18.77
2023-04-24T12:48:57.938Z,18.61
2023-04-24T12:51:59.065Z,18.42
2023-04-24T12:54:58.937Z,18.27
2023-04-24T12:58:01.978Z,18.13
2023-04-24T13:01:02.047Z,18.08
2023-04-24T13:04:02.181Z,18.11
2023-04-24T13:07:01.975Z,18.20
2023-04-24T13:10:05.024Z,18.24
2023-04-24T13:13:04.992Z,18.27
2023-04-24T13:16:05.029Z,18.26
2023-04-24T13:19:06.026Z,18.23
2023-04-24T13:22:06.008Z,18.13
2023-04-24T13:25:07.017Z,18.02
2023-04-24T13:28:07.081Z,17.95
2023-04-24T13:31:07.996Z,17.99
2023-04-24T13:34:08.078Z,18.24
2023-04-24T13:37:08.029Z,18.51
2023-04-24T13:40:08.105Z,18.60
2023-04-24T13:43:09.133Z,18.62
2023-04-24T13:46:10.070Z,18.69
2023-04-24T13:49:10.044Z,18.78
2023-04-24T13:52:10.085Z,18.83
2023-04-24T13:55:10.047Z,18.87
2023-04-24T13:58:10.116Z,18.85
2023-04-24T14:01:10.108Z,18.85
2023-04-24T14:04:10.214Z,18.82
2023-04-24T14:07:10.085Z,18.75
2023-04-24T14:10:10.087Z,18.72
2023-04-24T14:13:10.131Z,18.79
2023-04-24T14:16:10.200Z,18.85
2023-04-24T14:19:10.146Z,18.88
2023-04-24T14:22:10.100Z,18.89
2023-04-24T14:25:10.177Z,18.88
2023-04-24T14:28:10.079Z,18.86
2023-04-24T14:31:10.290Z,18.88
2023-04-24T14:34:10.124Z,18.92
2023-04-24T14:37:13.221Z,18.97
2023-04-24T14:40:32.020Z,19.09
2023-04-24T14:43:35.194Z,19.23
2023-04-24T14:46:35.351Z,19.23
2023-04-24T14:49:35.407Z,19.24
2023-04-24T14:52:35.152Z,19.22
2023-04-24T14:55:35.116Z,19.05
2023-04-24T14:58:35.191Z,18.88
2023-04-24T15:01:35.194Z,18.76
2023-04-24T15:04:35.452Z,18.70
2023-04-24T15:07:35.170Z,18.59
2023-04-24T15:10:36.256Z,18.45
2023-04-24T15:13:36.170Z,18.35
2023-04-24T15:16:37.318Z,18.27
2023-04-24T15:19:40.218Z,18.24
2023-04-24T15:22:41.631Z,18.22
2023-04-24T15:25:41.204Z,18.17
2023-04-24T15:28:41.295Z,18.15
2023-04-24T15:31:41.323Z,18.09
2023-04-24T15:34:41.351Z,17.95
2023-04-24T15:37:41.284Z,17.77
2023-04-24T15:40:42.346Z,17.64
2023-04-24T15:43:42.233Z,17.58
2023-04-24T15:46:42.261Z,17.54
2023-04-24T15:49:42.288Z,17.51
2023-04-24T15:52:42.256Z,17.44
2023-04-24T15:55:43.335Z,17.38
2023-04-24T15:58:46.503Z,17.35
2023-04-24T16:01:46.389Z,17.33
2023-04-24T16:04:46.496Z,17.30
2023-04-24T16:07:48.292Z,17.27
2023-04-24T16:10:46.282Z,17.21
2023-04-24T16:13:47.348Z,17.15
2023-04-24T16:16:47.466Z,17.10
2023-04-24T16:19:47.279Z,17.08
2023-04-24T16:22:47.395Z,17.03
2023-04-24T16:25:47.335Z,16.93
2023-04-24T16:28:49.640Z,16.82
2023-04-24T16:31:50.370Z,16.76
2023-04-24T16:34:50.368Z,16.70
2023-04-24T16:37:50.308Z,16.63
2023-04-24T16:40:44.398Z,16.54
2023-04-24T16:43:31.350Z,16.45
2023-04-24T16:46:31.415Z,16.38
2023-04-24T16:49:31.421Z,16.30
2023-04-24T16:52:24.531Z,16.19
2023-04-24T16:55:24.417Z,16.11
2023-04-24T16:58:24.426Z,16.01
2023-04-24T17:01:28.685Z,15.92
2023-04-24T17:04:28.523Z,15.83
2023-04-24T17:07:28.411Z,15.73
2023-04-24T17:10:31.520Z,15.64
2023-04-24T17:13:31.425Z,15.55
2023-04-24T17:16:31.484Z,15.45
2023-04-24T17:19:32.412Z,15.37
2023-04-24T17:22:32.445Z,15.27
2023-04-24T17:25:32.459Z,15.20
2023-04-24T17:28:36.477Z,15.11
2023-04-24T17:31:36.484Z,15.04
2023-04-24T17:34:36.447Z,14.96
2023-04-24T17:37:36.456Z,14.89
2023-04-24T17:40:38.785Z,14.81
2023-04-24T17:43:38.466Z,14.75
2023-04-24T17:46:38.624Z,14.68
2023-04-24T17:49:38.566Z,14.61
2023-04-24T17:52:38.534Z,14.58
2023-04-24T17:55:38.521Z,14.55
2023-04-24T17:58:38.571Z,14.50
2023-04-24T18:01:38.706Z,14.47
2023-04-24T18:04:38.752Z,14.42
2023-04-24T18:07:39.550Z,14.36
2023-04-24T18:10:39.510Z,14.29
2023-04-24T18:13:40.519Z,14.23
2023-04-24T18:16:42.559Z,14.16
2023-04-24T18:19:42.557Z,14.10
2023-04-24T18:22:42.528Z,14.05
2023-04-24T18:25:43.537Z,14.01
2023-04-24T18:28:43.570Z,13.98
2023-04-24T18:31:43.596Z,13.95
2023-04-24T18:34:43.582Z,13.93
2023-04-24T18:37:43.549Z,13.91
2023-04-24T18:40:43.619Z,13.91
2023-04-24T18:43:43.579Z,13.92
2023-04-24T18:46:47.657Z,13.93
2023-04-24T18:49:47.656Z,13.93
2023-04-24T18:52:47.620Z,13.93
2023-04-24T18:55:47.609Z,13.90
2023-04-24T18:58:51.073Z,13.86
2023-04-24T19:01:51.880Z,13.83
2023-04-24T19:04:52.666Z,13.81
2023-04-24T19:07:53.571Z,13.78
2023-04-24T19:10:54.645Z,13.73
2023-04-24T19:13:57.650Z,13.69
2023-04-24T19:16:57.755Z,13.64
2023-04-24T19:19:57.611Z,13.57
2023-04-24T19:22:58.632Z,13.50
2023-04-24T19:25:59.670Z,13.44
2023-04-24T19:28:59.625Z,13.38
2023-04-24T19:32:00.795Z,13.32
2023-04-24T19:35:00.647Z,13.26
2023-04-24T19:38:00.733Z,13.22
2023-04-24T19:41:00.745Z,13.17
2023-04-24T19:44:01.763Z,13.13
2023-04-24T19:47:02.979Z,13.09
2023-04-24T19:50:02.837Z,13.01
2023-04-24T19:53:02.695Z,12.84
2023-04-24T19:56:02.732Z,12.66
2023-04-24T19:59:02.688Z,12.57
2023-04-24T20:02:02.715Z,12.54
2023-04-24T20:05:03.018Z,12.49
2023-04-24T20:08:03.713Z,12.36
2023-04-24T20:11:04.816Z,12.24
2023-04-24T20:14:07.882Z,12.21
2023-04-24T20:17:00.731Z,12.18
2023-04-24T20:19:46.841Z,12.15
2023-04-24T20:22:46.758Z,12.06
2023-04-24T20:25:46.751Z,11.99
2023-04-24T20:28:46.842Z,12.00
2023-04-24T20:31:46.825Z,12.04
2023-04-24T20:34:46.786Z,12.07
2023-04-24T20:37:46.902Z,12.08
2023-04-24T20:40:57.191Z,12.10
2023-04-24T20:43:57.814Z,12.11
2023-04-24T20:46:57.930Z,12.11
2023-04-24T20:49:57.775Z,12.10
2023-04-24T20:52:58.893Z,12.06
2023-04-24T20:56:00.002Z,12.00
2023-04-24T20:58:55.347Z,11.93
2023-04-24T21:01:42.852Z,11.88
2023-04-24T21:04:38.017Z,11.83
2023-04-24T21:07:37.816Z,11.81
2023-04-24T21:10:37.853Z,11.77
2023-04-24T21:13:39.885Z,11.74
2023-04-24T21:16:40.060Z,11.71
2023-04-24T21:19:39.833Z,11.68
2023-04-24T21:22:39.859Z,11.65
2023-04-24T21:25:39.867Z,11.62
2023-04-24T21:28:40.862Z,11.58
2023-04-24T21:31:40.887Z,11.55
2023-04-24T21:34:41.851Z,11.51
2023-04-24T21:37:42.868Z,11.48
2023-04-24T21:40:42.926Z,11.46
2023-04-24T21:43:44.969Z,11.46
2023-04-24T21:46:47.882Z,11.47
2023-04-24T21:49:50.016Z,11.47
2023-04-24T21:52:49.898Z,11.47
2023-04-24T21:55:49.877Z,11.47
2023-04-24T21:58:49.950Z,11.49
2023-04-24T22:01:49.985Z,11.48
2023-04-24T22:04:50.132Z,11.47
2023-04-24T22:07:53.122Z,11.46
2023-04-24T22:10:52.922Z,11.44
2023-04-24T22:13:53.984Z,11.42
2023-04-24T22:16:53.960Z,11.38
2023-04-24T22:19:55.014Z,11.36
2023-04-24T22:22:59.223Z,11.35
2023-04-24T22:25:59.015Z,11.33
2023-04-24T22:29:00.125Z,11.32
2023-04-24T22:32:02.029Z,11.29
2023-04-24T22:35:02.011Z,11.26
2023-04-24T22:38:06.047Z,11.23
2023-04-24T22:41:05.973Z,11.20
2023-04-24T22:44:06.034Z,11.17
2023-04-24T22:46:59.287Z,11.14
2023-04-24T22:50:00.070Z,11.10
2023-04-24T22:53:03.111Z,11.06
2023-04-24T22:56:02.986Z,11.02
2023-04-24T22:59:03.029Z,11.00
2023-04-24T23:02:03.120Z,10.96
2023-04-24T23:05:03.033Z,10.94
2023-04-24T23:08:04.050Z,10.90
2023-04-24T23:11:04.017Z,10.88
2023-04-24T23:14:04.056Z,10.86
2023-04-24T23:17:04.097Z,10.87
2023-04-24T23:20:04.038Z,10.86
2023-04-24T23:23:04.039Z,10.86
2023-04-24T23:26:04.045Z,10.85
2023-04-24T23:29:04.049Z,10.82
2023-04-24T23:32:04.113Z,10.80
2023-04-24T23:35:04.042Z,10.78
2023-04-24T23:38:04.090Z,10.79
2023-04-24T23:41:04.036Z,10.80
2023-04-24T23:44:04.130Z,10.82
2023-04-24T23:47:04.111Z,10.82
2023-04-24T23:50:05.128Z,10.79
2023-04-24T23:53:06.133Z,10.78
2023-04-24T23:56:08.213Z,10.74
2023-04-24T23:59:08.558Z,10.66
